sensor_id;sensor_type;location;lat;lon;timestamp;P1;durP1;ratioP1;P2;durP2;ratioP2
17953;SDS011;9102;53.548;9.926;2023-11-19T00:01:06;28.67;;;11.88;;
17953;SDS011;9102;53.548;9.926;2023-11-19T00:03:33;25.50;;;11.38;;
17953;SDS011;9102;53.548;9.926;2023-11-19T00:06:01;33.53;;;12.55;;
17953;SDS011;9102;53.548;9.926;2023-11-19T00:08:29;26.33;;;11.00;;
17953;SDS011;9102;53.548;9.926;2023-11-19T00:10:57;26.92;;;11.45;;
17953;SDS011;9102;53.548;9.926;2023-11-19T00:13:24;26.20;;;11.00;;
17953;SDS011;9102;53.548;9.926;2023-11-19T00:15:51;26.08;;;10.82;;
17953;SDS011;9102;53.548;9.926;2023-11-19T00:18:18;24.25;;;10.32;;
17953;SDS011;9102;53.548;9.926;2023-11-19T00:20:44;24.65;;;10.15;;
17953;SDS011;9102;53.548;9.926;2023-11-19T00:23:11;28.00;;;10.40;;
17953;SDS011;9102;53.548;9.926;2023-11-19T00:25:38;23.83;;;10.63;;
17953;SDS011;9102;53.548;9.926;2023-11-19T00:28:06;20.48;;;9.23;;
17953;SDS011;9102;53.548;9.926;2023-11-19T00:30:33;18.17;;;8.70;;
17953;SDS011;9102;53.548;9.926;2023-11-19T00:33:00;20.67;;;8.98;;
17953;SDS011;9102;53.548;9.926;2023-11-19T00:35:26;17.45;;;8.30;;
17953;SDS011;9102;53.548;9.926;2023-11-19T00:37:53;20.35;;;9.00;;
17953;SDS011;9102;53.548;9.926;2023-11-19T00:40:20;23.55;;;9.77;;
17953;SDS011;9102;53.548;9.926;2023-11-19T00:42:48;24.10;;;8.38;;
17953;SDS011;9102;53.548;9.926;2023-11-19T00:45:16;21.33;;;9.45;;
17953;SDS011;9102;53.548;9.926;2023-11-19T00:47:44;16.90;;;8.45;;
17953;SDS011;9102;53.548;9.926;2023-11-19T00:50:11;24.15;;;8.52;;
17953;SDS011;9102;53.548;9.926;2023-11-19T00:52:38;19.92;;;8.32;;
17953;SDS011;9102;53.548;9.926;2023-11-19T00:55:05;20.35;;;8.32;;
17953;SDS011;9102;53.548;9.926;2023-11-19T00:57:33;22.05;;;8.35;;
17953;SDS011;9102;53.548;9.926;2023-11-19T01:00:00;16.75;;;7.97;;
17953;SDS011;9102;53.548;9.926;2023-11-19T01:02:29;16.25;;;7.07;;
17953;SDS011;9102;53.548;9.926;2023-11-19T01:04:56;15.93;;;7.00;;
17953;SDS011;9102;53.548;9.926;2023-11-19T01:07:22;11.63;;;6.32;;
17953;SDS011;9102;53.548;9.926;2023-11-19T01:09:51;12.02;;;6.13;;
17953;SDS011;9102;53.548;9.926;2023-11-19T01:12:19;13.60;;;6.38;;
17953;SDS011;9102;53.548;9.926;2023-11-19T01:14:45;14.65;;;6.15;;
17953;SDS011;9102;53.548;9.926;2023-11-19T01:17:12;12.18;;;5.60;;
17953;SDS011;9102;53.548;9.926;2023-11-19T01:19:40;14.00;;;5.50;;
17953;SDS011;9102;53.548;9.926;2023-11-19T01:22:07;9.73;;;5.32;;
17953;SDS011;9102;53.548;9.926;2023-11-19T01:24:34;13.43;;;5.25;;
17953;SDS011;9102;53.548;9.926;2023-11-19T01:27:01;10.43;;;4.68;;
17953;SDS011;9102;53.548;9.926;2023-11-19T01:29:28;11.05;;;4.75;;
17953;SDS011;9102;53.548;9.926;2023-11-19T01:31:54;9.02;;;4.57;;
17953;SDS011;9102;53.548;9.926;2023-11-19T01:34:21;9.57;;;4.57;;
17953;SDS011;9102;53.548;9.926;2023-11-19T01:36:49;10.35;;;4.50;;
17953;SDS011;9102;53.548;9.926;2023-11-19T01:39:16;9.38;;;4.82;;
17953;SDS011;9102;53.548;9.926;2023-11-19T01:41:45;8.35;;;4.70;;
17953;SDS011;9102;53.548;9.926;2023-11-19T01:44:11;8.10;;;4.50;;
17953;SDS011;9102;53.548;9.926;2023-11-19T01:46:39;8.40;;;4.68;;
17953;SDS011;9102;53.548;9.926;2023-11-19T01:49:07;5.63;;;3.53;;
17953;SDS011;9102;53.548;9.926;2023-11-19T01:51:35;5.63;;;3.13;;
17953;SDS011;9102;53.548;9.926;2023-11-19T01:54:03;7.90;;;3.05;;
17953;SDS011;9102;53.548;9.926;2023-11-19T01:56:30;4.13;;;2.97;;
17953;SDS011;9102;53.548;9.926;2023-11-19T01:58:58;6.70;;;3.00;;
17953;SDS011;9102;53.548;9.926;2023-11-19T02:01:26;5.82;;;2.80;;
17953;SDS011;9102;53.548;9.926;2023-11-19T02:03:54;5.85;;;2.90;;
17953;SDS011;9102;53.548;9.926;2023-11-19T02:06:23;5.43;;;2.60;;
17953;SDS011;9102;53.548;9.926;2023-11-19T02:08:51;5.05;;;2.83;;
17953;SDS011;9102;53.548;9.926;2023-11-19T02:11:19;4.03;;;2.65;;
17953;SDS011;9102;53.548;9.926;2023-11-19T02:13:46;4.93;;;2.80;;
17953;SDS011;9102;53.548;9.926;2023-11-19T02:16:12;4.50;;;2.80;;
17953;SDS011;9102;53.548;9.926;2023-11-19T02:18:39;5.32;;;3.30;;
17953;SDS011;9102;53.548;9.926;2023-11-19T02:21:06;4.90;;;2.55;;
17953;SDS011;9102;53.548;9.926;2023-11-19T02:23:35;4.93;;;3.15;;
17953;SDS011;9102;53.548;9.926;2023-11-19T02:26:03;5.10;;;3.10;;
17953;SDS011;9102;53.548;9.926;2023-11-19T02:28:40;5.50;;;2.88;;
17953;SDS011;9102;53.548;9.926;2023-11-19T02:31:08;6.57;;;3.28;;
17953;SDS011;9102;53.548;9.926;2023-11-19T02:33:35;5.20;;;3.13;;
17953;SDS011;9102;53.548;9.926;2023-11-19T02:36:02;5.32;;;3.17;;
17953;SDS011;9102;53.548;9.926;2023-11-19T02:38:29;4.80;;;3.22;;
17953;SDS011;9102;53.548;9.926;2023-11-19T02:40:56;6.20;;;3.60;;
17953;SDS011;9102;53.548;9.926;2023-11-19T02:43:23;4.75;;;3.20;;
17953;SDS011;9102;53.548;9.926;2023-11-19T02:45:51;6.43;;;3.42;;
17953;SDS011;9102;53.548;9.926;2023-11-19T02:48:20;6.72;;;3.58;;
17953;SDS011;9102;53.548;9.926;2023-11-19T02:50:47;5.45;;;3.50;;
17953;SDS011;9102;53.548;9.926;2023-11-19T02:53:14;9.18;;;4.00;;
17953;SDS011;9102;53.548;9.926;2023-11-19T02:55:41;5.55;;;3.17;;
17953;SDS011;9102;53.548;9.926;2023-11-19T02:58:13;4.95;;;3.55;;
17953;SDS011;9102;53.548;9.926;2023-11-19T03:00:48;5.90;;;3.92;;
17953;SDS011;9102;53.548;9.926;2023-11-19T03:03:23;7.57;;;3.78;;
17953;SDS011;9102;53.548;9.926;2023-11-19T03:05:56;5.88;;;3.92;;
17953;SDS011;9102;53.548;9.926;2023-11-19T03:08:23;7.72;;;3.83;;
17953;SDS011;9102;53.548;9.926;2023-11-19T03:10:49;7.78;;;3.83;;
17953;SDS011;9102;53.548;9.926;2023-11-19T03:13:16;6.57;;;3.67;;
17953;SDS011;9102;53.548;9.926;2023-11-19T03:15:43;5.90;;;3.92;;
17953;SDS011;9102;53.548;9.926;2023-11-19T03:18:10;6.55;;;4.15;;
17953;SDS011;9102;53.548;9.926;2023-11-19T03:20:39;7.57;;;4.30;;
17953;SDS011;9102;53.548;9.926;2023-11-19T03:23:05;8.32;;;5.05;;
17953;SDS011;9102;53.548;9.926;2023-11-19T03:25:32;10.50;;;4.90;;
17953;SDS011;9102;53.548;9.926;2023-11-19T03:27:59;7.30;;;4.70;;
17953;SDS011;9102;53.548;9.926;2023-11-19T03:30:28;6.88;;;4.72;;
17953;SDS011;9102;53.548;9.926;2023-11-19T03:32:55;6.55;;;4.50;;
17953;SDS011;9102;53.548;9.926;2023-11-19T03:35:22;8.90;;;5.00;;
17953;SDS011;9102;53.548;9.926;2023-11-19T03:37:51;8.50;;;5.28;;
17953;SDS011;9102;53.548;9.926;2023-11-19T03:40:18;11.55;;;5.53;;
17953;SDS011;9102;53.548;9.926;2023-11-19T03:42:45;10.88;;;5.97;;
17953;SDS011;9102;53.548;9.926;2023-11-19T03:45:12;8.32;;;4.93;;
17953;SDS011;9102;53.548;9.926;2023-11-19T03:47:39;10.18;;;5.10;;
17953;SDS011;9102;53.548;9.926;2023-11-19T03:50:06;7.97;;;5.10;;
17953;SDS011;9102;53.548;9.926;2023-11-19T03:52:34;6.85;;;4.95;;
17953;SDS011;9102;53.548;9.926;2023-11-19T03:55:02;11.52;;;5.47;;
17953;SDS011;9102;53.548;9.926;2023-11-19T03:57:29;13.32;;;5.97;;
17953;SDS011;9102;53.548;9.926;2023-11-19T03:59:56;12.32;;;6.25;;
17953;SDS011;9102;53.548;9.926;2023-11-19T04:02:24;9.98;;;6.10;;
17953;SDS011;9102;53.548;9.926;2023-11-19T04:04:52;10.63;;;6.53;;
17953;SDS011;9102;53.548;9.926;2023-11-19T04:07:20;12.45;;;6.47;;
17953;SDS011;9102;53.548;9.926;2023-11-19T04:09:46;13.88;;;6.47;;
17953;SDS011;9102;53.548;9.926;2023-11-19T04:12:15;13.23;;;6.80;;
17953;SDS011;9102;53.548;9.926;2023-11-19T04:14:42;12.52;;;6.65;;
17953;SDS011;9102;53.548;9.926;2023-11-19T04:17:09;13.05;;;6.75;;
17953;SDS011;9102;53.548;9.926;2023-11-19T04:19:36;12.68;;;6.60;;
17953;SDS011;9102;53.548;9.926;2023-11-19T04:22:03;13.77;;;6.65;;
17953;SDS011;9102;53.548;9.926;2023-11-19T04:24:30;13.25;;;6.18;;
17953;SDS011;9102;53.548;9.926;2023-11-19T04:26:57;14.80;;;7.38;;
17953;SDS011;9102;53.548;9.926;2023-11-19T04:29:25;13.43;;;7.10;;
17953;SDS011;9102;53.548;9.926;2023-11-19T04:31:52;14.65;;;6.80;;
17953;SDS011;9102;53.548;9.926;2023-11-19T04:34:19;19.65;;;6.97;;
17953;SDS011;9102;53.548;9.926;2023-11-19T04:36:45;17.10;;;7.72;;
17953;SDS011;9102;53.548;9.926;2023-11-19T04:39:12;18.38;;;7.63;;
17953;SDS011;9102;53.548;9.926;2023-11-19T04:41:46;16.80;;;7.55;;
17953;SDS011;9102;53.548;9.926;2023-11-19T04:44:13;17.92;;;7.85;;
17953;SDS011;9102;53.548;9.926;2023-11-19T04:46:42;20.13;;;7.72;;
17953;SDS011;9102;53.548;9.926;2023-11-19T04:49:09;22.70;;;7.68;;
17953;SDS011;9102;53.548;9.926;2023-11-19T04:51:38;15.65;;;7.18;;
17953;SDS011;9102;53.548;9.926;2023-11-19T04:54:05;19.85;;;8.30;;
17953;SDS011;9102;53.548;9.926;2023-11-19T04:56:33;19.35;;;8.15;;
17953;SDS011;9102;53.548;9.926;2023-11-19T04:59:00;27.50;;;8.55;;
17953;SDS011;9102;53.548;9.926;2023-11-19T05:01:27;25.73;;;8.82;;
17953;SDS011;9102;53.548;9.926;2023-11-19T05:03:55;21.50;;;8.50;;
17953;SDS011;9102;53.548;9.926;2023-11-19T05:06:25;26.27;;;10.57;;
17953;SDS011;9102;53.548;9.926;2023-11-19T05:08:53;34.92;;;11.02;;
17953;SDS011;9102;53.548;9.926;2023-11-19T05:11:20;35.42;;;11.45;;
17953;SDS011;9102;53.548;9.926;2023-11-19T05:13:47;33.33;;;11.38;;
17953;SDS011;9102;53.548;9.926;2023-11-19T05:16:13;40.20;;;12.02;;
17953;SDS011;9102;53.548;9.926;2023-11-19T05:18:40;39.17;;;12.13;;
17953;SDS011;9102;53.548;9.926;2023-11-19T05:21:09;41.85;;;13.52;;
17953;SDS011;9102;53.548;9.926;2023-11-19T05:23:35;51.05;;;15.05;;
17953;SDS011;9102;53.548;9.926;2023-11-19T05:26:02;67.20;;;17.13;;
17953;SDS011;9102;53.548;9.926;2023-11-19T05:28:30;47.95;;;17.00;;
17953;SDS011;9102;53.548;9.926;2023-11-19T05:30:56;75.63;;;20.65;;
17953;SDS011;9102;53.548;9.926;2023-11-19T05:33:23;62.25;;;19.02;;
17953;SDS011;9102;53.548;9.926;2023-11-19T05:35:50;70.53;;;21.77;;
17953;SDS011;9102;53.548;9.926;2023-11-19T05:38:18;85.18;;;23.00;;
17953;SDS011;9102;53.548;9.926;2023-11-19T05:40:46;78.80;;;22.02;;
17953;SDS011;9102;53.548;9.926;2023-11-19T05:43:14;99.22;;;24.63;;
17953;SDS011;9102;53.548;9.926;2023-11-19T05:45:41;64.13;;;21.77;;
17953;SDS011;9102;53.548;9.926;2023-11-19T05:48:08;74.82;;;22.85;;
17953;SDS011;9102;53.548;9.926;2023-11-19T05:50:35;85.00;;;23.58;;
17953;SDS011;9102;53.548;9.926;2023-11-19T05:53:02;67.40;;;21.15;;
17953;SDS011;9102;53.548;9.926;2023-11-19T05:55:34;62.75;;;21.30;;
17953;SDS011;9102;53.548;9.926;2023-11-19T05:58:02;78.30;;;22.77;;
17953;SDS011;9102;53.548;9.926;2023-11-19T06:00:31;101.65;;;23.70;;
17953;SDS011;9102;53.548;9.926;2023-11-19T06:02:58;79.03;;;24.13;;
17953;SDS011;9102;53.548;9.926;2023-11-19T06:05:25;108.78;;;24.60;;
17953;SDS011;9102;53.548;9.926;2023-11-19T06:07:52;58.28;;;20.00;;
17953;SDS011;9102;53.548;9.926;2023-11-19T06:10:18;122.60;;;25.15;;
17953;SDS011;9102;53.548;9.926;2023-11-19T06:12:47;61.47;;;21.60;;
17953;SDS011;9102;53.548;9.926;2023-11-19T06:15:21;98.63;;;23.90;;
17953;SDS011;9102;53.548;9.926;2023-11-19T06:17:47;60.13;;;20.00;;
17953;SDS011;9102;53.548;9.926;2023-11-19T06:20:14;101.20;;;21.85;;
17953;SDS011;9102;53.548;9.926;2023-11-19T06:22:42;66.90;;;20.77;;
17953;SDS011;9102;53.548;9.926;2023-11-19T06:25:11;95.30;;;21.83;;
17953;SDS011;9102;53.548;9.926;2023-11-19T06:27:39;109.60;;;22.90;;
17953;SDS011;9102;53.548;9.926;2023-11-19T06:30:08;85.32;;;20.48;;
17953;SDS011;9102;53.548;9.926;2023-11-19T06:32:35;63.88;;;21.13;;
17953;SDS011;9102;53.548;9.926;2023-11-19T06:35:02;90.38;;;21.92;;
17953;SDS011;9102;53.548;9.926;2023-11-19T06:37:30;75.32;;;19.25;;
17953;SDS011;9102;53.548;9.926;2023-11-19T06:39:57;67.07;;;18.67;;
17953;SDS011;9102;53.548;9.926;2023-11-19T06:42:24;82.40;;;18.02;;
17953;SDS011;9102;53.548;9.926;2023-11-19T06:44:51;58.65;;;16.67;;
17953;SDS011;9102;53.548;9.926;2023-11-19T06:47:19;70.32;;;18.27;;
17953;SDS011;9102;53.548;9.926;2023-11-19T06:49:46;69.88;;;17.33;;
17953;SDS011;9102;53.548;9.926;2023-11-19T06:52:12;61.92;;;16.23;;
17953;SDS011;9102;53.548;9.926;2023-11-19T06:54:39;85.55;;;17.67;;
17953;SDS011;9102;53.548;9.926;2023-11-19T06:57:06;62.78;;;16.85;;
17953;SDS011;9102;53.548;9.926;2023-11-19T06:59:34;63.95;;;15.63;;
17953;SDS011;9102;53.548;9.926;2023-11-19T07:02:02;98.85;;;17.30;;
17953;SDS011;9102;53.548;9.926;2023-11-19T07:04:31;72.30;;;15.95;;
17953;SDS011;9102;53.548;9.926;2023-11-19T07:06:58;66.63;;;15.00;;
17953;SDS011;9102;53.548;9.926;2023-11-19T07:09:25;73.18;;;16.40;;
17953;SDS011;9102;53.548;9.926;2023-11-19T07:11:52;69.70;;;15.40;;
17953;SDS011;9102;53.548;9.926;2023-11-19T07:14:19;64.60;;;14.23;;
17953;SDS011;9102;53.548;9.926;2023-11-19T07:16:47;66.53;;;14.80;;
17953;SDS011;9102;53.548;9.926;2023-11-19T07:19:15;75.30;;;13.48;;
17953;SDS011;9102;53.548;9.926;2023-11-19T07:21:43;49.13;;;12.90;;
17953;SDS011;9102;53.548;9.926;2023-11-19T07:24:10;57.10;;;13.40;;
17953;SDS011;9102;53.548;9.926;2023-11-19T07:26:40;49.72;;;12.18;;
17953;SDS011;9102;53.548;9.926;2023-11-19T07:29:08;67.57;;;11.50;;
17953;SDS011;9102;53.548;9.926;2023-11-19T07:31:35;40.17;;;9.90;;
17953;SDS011;9102;53.548;9.926;2023-11-19T07:34:02;45.05;;;9.07;;
17953;SDS011;9102;53.548;9.926;2023-11-19T07:36:30;59.42;;;10.10;;
17953;SDS011;9102;53.548;9.926;2023-11-19T07:38:58;59.47;;;9.25;;
17953;SDS011;9102;53.548;9.926;2023-11-19T07:41:25;53.92;;;9.63;;
17953;SDS011;9102;53.548;9.926;2023-11-19T07:43:52;61.85;;;11.13;;
17953;SDS011;9102;53.548;9.926;2023-11-19T07:46:19;62.95;;;10.82;;
17953;SDS011;9102;53.548;9.926;2023-11-19T07:48:46;46.83;;;9.52;;
17953;SDS011;9102;53.548;9.926;2023-11-19T07:51:13;66.30;;;10.57;;
17953;SDS011;9102;53.548;9.926;2023-11-19T07:53:40;68.30;;;10.25;;
17953;SDS011;9102;53.548;9.926;2023-11-19T07:56:09;53.53;;;9.15;;
17953;SDS011;9102;53.548;9.926;2023-11-19T07:58:36;59.45;;;10.13;;
17953;SDS011;9102;53.548;9.926;2023-11-19T08:01:03;64.00;;;10.40;;
17953;SDS011;9102;53.548;9.926;2023-11-19T08:03:31;49.10;;;9.40;;
17953;SDS011;9102;53.548;9.926;2023-11-19T08:05:59;66.22;;;12.55;;
17953;SDS011;9102;53.548;9.926;2023-11-19T08:08:26;78.13;;;13.88;;
17953;SDS011;9102;53.548;9.926;2023-11-19T08:10:54;69.88;;;16.90;;
17953;SDS011;9102;53.548;9.926;2023-11-19T08:13:23;77.90;;;15.05;;
17953;SDS011;9102;53.548;9.926;2023-11-19T08:15:49;73.30;;;11.73;;
17953;SDS011;9102;53.548;9.926;2023-11-19T08:18:16;55.88;;;11.05;;
17953;SDS011;9102;53.548;9.926;2023-11-19T08:20:44;68.85;;;9.02;;
17953;SDS011;9102;53.548;9.926;2023-11-19T08:23:14;69.18;;;8.23;;
17953;SDS011;9102;53.548;9.926;2023-11-19T08:25:40;58.42;;;8.35;;
17953;SDS011;9102;53.548;9.926;2023-11-19T08:28:07;43.83;;;7.78;;
17953;SDS011;9102;53.548;9.926;2023-11-19T08:30:35;46.13;;;6.68;;
17953;SDS011;9102;53.548;9.926;2023-11-19T08:33:02;53.22;;;7.68;;
17953;SDS011;9102;53.548;9.926;2023-11-19T08:35:31;65.20;;;7.70;;
17953;SDS011;9102;53.548;9.926;2023-11-19T08:37:57;72.65;;;8.57;;
17953;SDS011;9102;53.548;9.926;2023-11-19T08:40:25;65.65;;;7.65;;
17953;SDS011;9102;53.548;9.926;2023-11-19T08:42:52;44.53;;;6.70;;
17953;SDS011;9102;53.548;9.926;2023-11-19T08:45:18;57.67;;;6.32;;
17953;SDS011;9102;53.548;9.926;2023-11-19T08:47:46;64.03;;;7.55;;
17953;SDS011;9102;53.548;9.926;2023-11-19T08:50:13;72.53;;;8.13;;
17953;SDS011;9102;53.548;9.926;2023-11-19T08:52:40;60.50;;;7.45;;
17953;SDS011;9102;53.548;9.926;2023-11-19T08:55:07;77.82;;;8.43;;
17953;SDS011;9102;53.548;9.926;2023-11-19T08:57:35;70.25;;;7.25;;
17953;SDS011;9102;53.548;9.926;2023-11-19T09:00:02;51.45;;;7.10;;
17953;SDS011;9102;53.548;9.926;2023-11-19T09:02:32;65.93;;;7.53;;
17953;SDS011;9102;53.548;9.926;2023-11-19T09:05:00;65.70;;;7.70;;
17953;SDS011;9102;53.548;9.926;2023-11-19T09:07:27;68.53;;;7.63;;
17953;SDS011;9102;53.548;9.926;2023-11-19T09:09:54;54.65;;;8.02;;
17953;SDS011;9102;53.548;9.926;2023-11-19T09:12:20;57.40;;;7.93;;
17953;SDS011;9102;53.548;9.926;2023-11-19T09:14:48;127.35;;;34.65;;
17953;SDS011;9102;53.548;9.926;2023-11-19T09:17:15;76.40;;;8.75;;
17953;SDS011;9102;53.548;9.926;2023-11-19T09:19:43;68.43;;;8.00;;
17953;SDS011;9102;53.548;9.926;2023-11-19T09:22:12;52.70;;;6.50;;
17953;SDS011;9102;53.548;9.926;2023-11-19T09:24:42;68.13;;;7.88;;
17953;SDS011;9102;53.548;9.926;2023-11-19T09:27:09;69.60;;;7.57;;
17953;SDS011;9102;53.548;9.926;2023-11-19T09:29:36;78.13;;;7.93;;
17953;SDS011;9102;53.548;9.926;2023-11-19T09:32:03;73.93;;;8.13;;
17953;SDS011;9102;53.548;9.926;2023-11-19T09:34:31;66.30;;;8.10;;
17953;SDS011;9102;53.548;9.926;2023-11-19T09:36:58;69.32;;;10.15;;
17953;SDS011;9102;53.548;9.926;2023-11-19T09:39:26;48.05;;;6.35;;
17953;SDS011;9102;53.548;9.926;2023-11-19T09:41:53;63.65;;;8.30;;
17953;SDS011;9102;53.548;9.926;2023-11-19T09:44:20;69.95;;;7.60;;
17953;SDS011;9102;53.548;9.926;2023-11-19T09:46:47;81.55;;;7.50;;
17953;SDS011;9102;53.548;9.926;2023-11-19T09:49:14;53.70;;;7.55;;
17953;SDS011;9102;53.548;9.926;2023-11-19T09:51:47;59.15;;;6.50;;
17953;SDS011;9102;53.548;9.926;2023-11-19T09:54:14;50.72;;;6.22;;
17953;SDS011;9102;53.548;9.926;2023-11-19T09:56:42;63.47;;;7.80;;
17953;SDS011;9102;53.548;9.926;2023-11-19T09:59:09;59.35;;;7.72;;
17953;SDS011;9102;53.548;9.926;2023-11-19T10:01:37;61.10;;;6.70;;
17953;SDS011;9102;53.548;9.926;2023-11-19T10:04:05;56.88;;;6.78;;
17953;SDS011;9102;53.548;9.926;2023-11-19T10:06:32;56.25;;;6.93;;
17953;SDS011;9102;53.548;9.926;2023-11-19T10:08:59;53.97;;;7.70;;
17953;SDS011;9102;53.548;9.926;2023-11-19T10:11:26;46.28;;;5.78;;
17953;SDS011;9102;53.548;9.926;2023-11-19T10:13:54;47.55;;;7.22;;
17953;SDS011;9102;53.548;9.926;2023-11-19T10:16:27;66.13;;;8.25;;
17953;SDS011;9102;53.548;9.926;2023-11-19T10:18:55;45.15;;;5.53;;
17953;SDS011;9102;53.548;9.926;2023-11-19T10:21:22;40.17;;;6.15;;
17953;SDS011;9102;53.548;9.926;2023-11-19T10:23:51;54.03;;;6.80;;
17953;SDS011;9102;53.548;9.926;2023-11-19T10:26:19;50.17;;;6.57;;
17953;SDS011;9102;53.548;9.926;2023-11-19T10:28:47;73.32;;;5.85;;
17953;SDS011;9102;53.548;9.926;2023-11-19T10:31:16;53.78;;;8.40;;
17953;SDS011;9102;53.548;9.926;2023-11-19T10:33:43;63.25;;;6.90;;
17953;SDS011;9102;53.548;9.926;2023-11-19T10:36:11;43.20;;;5.80;;
17953;SDS011;9102;53.548;9.926;2023-11-19T10:38:38;58.47;;;5.80;;
17953;SDS011;9102;53.548;9.926;2023-11-19T10:41:05;44.55;;;5.60;;
17953;SDS011;9102;53.548;9.926;2023-11-19T10:43:42;43.38;;;5.70;;
17953;SDS011;9102;53.548;9.926;2023-11-19T10:46:10;44.88;;;5.55;;
17953;SDS011;9102;53.548;9.926;2023-11-19T10:48:40;53.03;;;7.35;;
17953;SDS011;9102;53.548;9.926;2023-11-19T10:51:07;64.30;;;7.50;;
17953;SDS011;9102;53.548;9.926;2023-11-19T10:53:35;49.97;;;6.95;;
17953;SDS011;9102;53.548;9.926;2023-11-19T10:56:04;40.40;;;6.07;;
17953;SDS011;9102;53.548;9.926;2023-11-19T10:58:36;46.35;;;6.50;;
17953;SDS011;9102;53.548;9.926;2023-11-19T11:01:11;46.83;;;5.95;;
17953;SDS011;9102;53.548;9.926;2023-11-19T11:03:43;49.17;;;7.22;;
17953;SDS011;9102;53.548;9.926;2023-11-19T11:06:12;53.58;;;6.28;;
17953;SDS011;9102;53.548;9.926;2023-11-19T11:08:39;46.13;;;5.30;;
17953;SDS011;9102;53.548;9.926;2023-11-19T11:11:07;52.35;;;5.78;;
17953;SDS011;9102;53.548;9.926;2023-11-19T11:13:38;54.28;;;5.97;;
17953;SDS011;9102;53.548;9.926;2023-11-19T11:16:08;54.60;;;6.15;;
17953;SDS011;9102;53.548;9.926;2023-11-19T11:18:36;40.97;;;5.60;;
17953;SDS011;9102;53.548;9.926;2023-11-19T11:21:05;42.78;;;6.13;;
17953;SDS011;9102;53.548;9.926;2023-11-19T11:29:28;51.33;;;6.57;;
17953;SDS011;9102;53.548;9.926;2023-11-19T11:32:12;47.97;;;6.60;;
17953;SDS011;9102;53.548;9.926;2023-11-19T11:34:53;46.08;;;5.07;;
17953;SDS011;9102;53.548;9.926;2023-11-19T11:37:31;58.55;;;5.95;;
17953;SDS011;9102;53.548;9.926;2023-11-19T11:40:01;38.28;;;5.35;;
17953;SDS011;9102;53.548;9.926;2023-11-19T11:42:35;56.80;;;6.03;;
17953;SDS011;9102;53.548;9.926;2023-11-19T11:45:03;53.92;;;6.22;;
17953;SDS011;9102;53.548;9.926;2023-11-19T11:50:47;40.25;;;5.32;;
17953;SDS011;9102;53.548;9.926;2023-11-19T11:53:20;44.17;;;5.25;;
17953;SDS011;9102;53.548;9.926;2023-11-19T11:55:55;33.72;;;5.10;;
17953;SDS011;9102;53.548;9.926;2023-11-19T11:58:25;46.88;;;6.32;;
17953;SDS011;9102;53.548;9.926;2023-11-19T12:00:57;47.97;;;5.25;;
17953;SDS011;9102;53.548;9.926;2023-11-19T12:03:26;37.70;;;4.90;;
17953;SDS011;9102;53.548;9.926;2023-11-19T12:05:55;35.53;;;4.65;;
17953;SDS011;9102;53.548;9.926;2023-11-19T12:08:25;31.48;;;4.82;;
17953;SDS011;9102;53.548;9.926;2023-11-19T12:10:55;41.75;;;5.20;;
17953;SDS011;9102;53.548;9.926;2023-11-19T12:13:24;33.60;;;4.88;;
17953;SDS011;9102;53.548;9.926;2023-11-19T12:18:39;30.23;;;4.95;;
17953;SDS011;9102;53.548;9.926;2023-11-19T12:21:07;37.53;;;5.53;;
17953;SDS011;9102;53.548;9.926;2023-11-19T12:23:43;29.80;;;4.72;;
17953;SDS011;9102;53.548;9.926;2023-11-19T12:26:34;48.15;;;5.72;;
17953;SDS011;9102;53.548;9.926;2023-11-19T12:29:02;32.95;;;5.10;;
17953;SDS011;9102;53.548;9.926;2023-11-19T12:31:29;26.90;;;4.32;;
17953;SDS011;9102;53.548;9.926;2023-11-19T12:33:56;39.05;;;5.00;;
17953;SDS011;9102;53.548;9.926;2023-11-19T12:36:23;30.67;;;5.28;;
17953;SDS011;9102;53.548;9.926;2023-11-19T12:38:51;29.67;;;4.32;;
17953;SDS011;9102;53.548;9.926;2023-11-19T12:41:18;30.80;;;4.10;;
17953;SDS011;9102;53.548;9.926;2023-11-19T12:43:48;35.90;;;10.23;;
17953;SDS011;9102;53.548;9.926;2023-11-19T12:46:18;24.30;;;4.57;;
17953;SDS011;9102;53.548;9.926;2023-11-19T12:48:46;38.25;;;5.20;;
17953;SDS011;9102;53.548;9.926;2023-11-19T12:51:13;31.17;;;4.40;;
17953;SDS011;9102;53.548;9.926;2023-11-19T12:53:49;30.83;;;4.47;;
17953;SDS011;9102;53.548;9.926;2023-11-19T12:56:19;31.00;;;4.78;;
17953;SDS011;9102;53.548;9.926;2023-11-19T12:58:46;29.30;;;4.10;;
17953;SDS011;9102;53.548;9.926;2023-11-19T13:01:15;30.73;;;6.20;;
17953;SDS011;9102;53.548;9.926;2023-11-19T13:03:43;31.33;;;4.78;;
17953;SDS011;9102;53.548;9.926;2023-11-19T13:06:10;33.22;;;5.40;;
17953;SDS011;9102;53.548;9.926;2023-11-19T13:08:38;36.40;;;5.00;;
17953;SDS011;9102;53.548;9.926;2023-11-19T13:11:07;29.92;;;4.63;;
17953;SDS011;9102;53.548;9.926;2023-11-19T13:16:29;38.53;;;5.05;;
17953;SDS011;9102;53.548;9.926;2023-11-19T13:18:57;29.92;;;4.45;;
17953;SDS011;9102;53.548;9.926;2023-11-19T13:21:25;32.05;;;4.85;;
17953;SDS011;9102;53.548;9.926;2023-11-19T13:23:51;25.90;;;4.20;;
17953;SDS011;9102;53.548;9.926;2023-11-19T13:26:20;27.83;;;4.07;;
17953;SDS011;9102;53.548;9.926;2023-11-19T13:28:46;37.70;;;5.25;;
17953;SDS011;9102;53.548;9.926;2023-11-19T13:31:14;33.70;;;5.00;;
17953;SDS011;9102;53.548;9.926;2023-11-19T13:33:41;33.47;;;5.60;;
17953;SDS011;9102;53.548;9.926;2023-11-19T13:36:08;33.78;;;5.25;;
17953;SDS011;9102;53.548;9.926;2023-11-19T13:38:35;26.42;;;4.07;;
17953;SDS011;9102;53.548;9.926;2023-11-19T13:41:02;28.23;;;4.70;;
17953;SDS011;9102;53.548;9.926;2023-11-19T13:43:31;33.55;;;5.68;;
17953;SDS011;9102;53.548;9.926;2023-11-19T13:45:58;25.50;;;4.05;;
17953;SDS011;9102;53.548;9.926;2023-11-19T13:48:25;28.83;;;4.93;;
17953;SDS011;9102;53.548;9.926;2023-11-19T13:50:54;34.25;;;5.70;;
17953;SDS011;9102;53.548;9.926;2023-11-19T13:53:21;31.67;;;5.60;;
17953;SDS011;9102;53.548;9.926;2023-11-19T13:55:48;39.88;;;4.82;;
17953;SDS011;9102;53.548;9.926;2023-11-19T13:58:14;21.42;;;4.10;;
17953;SDS011;9102;53.548;9.926;2023-11-19T14:00:43;32.92;;;6.30;;
17953;SDS011;9102;53.548;9.926;2023-11-19T14:03:10;34.88;;;4.20;;
17953;SDS011;9102;53.548;9.926;2023-11-19T14:05:37;33.95;;;4.28;;
17953;SDS011;9102;53.548;9.926;2023-11-19T14:08:04;32.38;;;5.63;;
17953;SDS011;9102;53.548;9.926;2023-11-19T14:10:36;27.52;;;4.68;;
17953;SDS011;9102;53.548;9.926;2023-11-19T14:13:04;27.52;;;3.95;;
17953;SDS011;9102;53.548;9.926;2023-11-19T14:15:31;33.97;;;4.30;;
17953;SDS011;9102;53.548;9.926;2023-11-19T14:17:59;32.17;;;4.68;;
17953;SDS011;9102;53.548;9.926;2023-11-19T14:20:26;31.85;;;5.50;;
17953;SDS011;9102;53.548;9.926;2023-11-19T14:22:53;23.27;;;4.13;;
17953;SDS011;9102;53.548;9.926;2023-11-19T14:25:20;31.10;;;4.35;;
17953;SDS011;9102;53.548;9.926;2023-11-19T14:27:48;33.13;;;5.28;;
17953;SDS011;9102;53.548;9.926;2023-11-19T14:30:15;35.75;;;11.73;;
17953;SDS011;9102;53.548;9.926;2023-11-19T14:32:42;31.92;;;5.85;;
17953;SDS011;9102;53.548;9.926;2023-11-19T14:35:12;32.08;;;5.25;;
17953;SDS011;9102;53.548;9.926;2023-11-19T14:37:39;37.70;;;6.13;;
17953;SDS011;9102;53.548;9.926;2023-11-19T14:40:06;38.78;;;5.70;;
17953;SDS011;9102;53.548;9.926;2023-11-19T14:42:36;38.60;;;6.53;;
17953;SDS011;9102;53.548;9.926;2023-11-19T14:45:04;29.10;;;5.00;;
17953;SDS011;9102;53.548;9.926;2023-11-19T14:47:32;33.50;;;4.40;;
17953;SDS011;9102;53.548;9.926;2023-11-19T14:49:59;31.17;;;4.05;;
17953;SDS011;9102;53.548;9.926;2023-11-19T14:52:28;28.58;;;3.92;;
17953;SDS011;9102;53.548;9.926;2023-11-19T14:54:54;27.50;;;5.00;;
17953;SDS011;9102;53.548;9.926;2023-11-19T14:57:21;24.92;;;5.10;;
17953;SDS011;9102;53.548;9.926;2023-11-19T14:59:48;43.47;;;11.60;;
17953;SDS011;9102;53.548;9.926;2023-11-19T15:02:15;30.73;;;6.15;;
17953;SDS011;9102;53.548;9.926;2023-11-19T15:04:42;22.90;;;4.28;;